sensor_id;sensor_type;location;lat;lon;timestamp;temperature;humidity
27890;DHT22;15238;49.082;9.102;2022-10-13T00:00:48;10.40;99.90
27890;DHT22;15238;49.082;9.102;2022-10-13T00:02:49;10.40;99.90
27890;DHT22;15238;49.082;9.102;2022-10-13T00:04:49;10.40;99.90
27890;DHT22;15238;49.082;9.102;2022-10-13T00:06:50;10.30;99.90
27890;DHT22;15238;49.082;9.102;2022-10-13T00:08:51;10.30;99.90
27890;DHT22;15238;49.082;9.102;2022-10-13T00:10:52;10.30;99.90
27890;DHT22;15238;49.082;9.102;2022-10-13T00:12:53;10.30;99.90
27890;DHT22;15238;49.082;9.102;2022-10-13T00:14:53;10.30;99.90
27890;DHT22;15238;49.082;9.102;2022-10-13T00:16:54;10.20;99.90
27890;DHT22;15238;49.082;9.102;2022-10-13T00:18:54;10.30;99.90
27890;DHT22;15238;49.082;9.102;2022-10-13T00:20:55;10.20;99.90
27890;DHT22;15238;49.082;9.102;2022-10-13T00:22:55;10.20;99.90
27890;DHT22;15238;49.082;9.102;2022-10-13T00:24:56;10.20;99.90
27890;DHT22;15238;49.082;9.102;2022-10-13T00:26:56;10.20;99.90
27890;DHT22;15238;49.082;9.102;2022-10-13T00:28:57;10.10;99.90
27890;DHT22;15238;49.082;9.102;2022-10-13T00:30:58;10.10;99.90
27890;DHT22;15238;49.082;9.102;2022-10-13T00:32:58;10.00;99.90
27890;DHT22;15238;49.082;9.102;2022-10-13T00:34:59;10.00;99.90
27890;DHT22;15238;49.082;9.102;2022-10-13T00:36:59;10.00;99.90
27890;DHT22;15238;49.082;9.102;2022-10-13T00:39:00;10.00;99.90
27890;DHT22;15238;49.082;9.102;2022-10-13T00:41:01;9.90;99.90
27890;DHT22;15238;49.082;9.102;2022-10-13T00:43:01;9.90;99.90
27890;DHT22;15238;49.082;9.102;2022-10-13T00:45:06;9.90;99.90
27890;DHT22;15238;49.082;9.102;2022-10-13T00:47:07;9.90;99.90
27890;DHT22;15238;49.082;9.102;2022-10-13T00:49:11;9.90;99.90
27890;DHT22;15238;49.082;9.102;2022-10-13T00:51:15;9.80;99.90
27890;DHT22;15238;49.082;9.102;2022-10-13T00:53:17;9.80;99.90
27890;DHT22;15238;49.082;9.102;2022-10-13T00:55:22;9.70;99.90
27890;DHT22;15238;49.082;9.102;2022-10-13T00:57:25;9.70;99.90
27890;DHT22;15238;49.082;9.102;2022-10-13T00:59:26;9.70;99.90
27890;DHT22;15238;49.082;9.102;2022-10-13T01:01:28;9.70;99.90
27890;DHT22;15238;49.082;9.102;2022-10-13T01:03:29;9.70;99.90
27890;DHT22;15238;49.082;9.102;2022-10-13T01:05:30;9.60;99.90
27890;DHT22;15238;49.082;9.102;2022-10-13T01:07:31;9.60;99.90
27890;DHT22;15238;49.082;9.102;2022-10-13T01:09:33;9.60;99.90
27890;DHT22;15238;49.082;9.102;2022-10-13T01:12:05;9.60;99.90
27890;DHT22;15238;49.082;9.102;2022-10-13T01:29:40;9.50;99.90
27890;DHT22;15238;49.082;9.102;2022-10-13T01:31:16;9.50;99.90
27890;DHT22;15238;49.082;9.102;2022-10-13T01:33:42;9.50;99.90
27890;DHT22;15238;49.082;9.102;2022-10-13T01:40:24;9.50;99.90
27890;DHT22;15238;49.082;9.102;2022-10-13T01:42:32;9.50;99.90
27890;DHT22;15238;49.082;9.102;2022-10-13T01:44:37;9.50;99.90
27890;DHT22;15238;49.082;9.102;2022-10-13T01:46:39;9.50;99.90
27890;DHT22;15238;49.082;9.102;2022-10-13T01:48:42;9.50;99.90
27890;DHT22;15238;49.082;9.102;2022-10-13T01:50:44;9.50;99.90
27890;DHT22;15238;49.082;9.102;2022-10-13T01:52:46;9.40;99.90
27890;DHT22;15238;49.082;9.102;2022-10-13T01:54:49;9.50;99.90
27890;DHT22;15238;49.082;9.102;2022-10-13T01:56:54;9.50;99.90
27890;DHT22;15238;49.082;9.102;2022-10-13T01:58:56;9.50;99.90
27890;DHT22;15238;49.082;9.102;2022-10-13T02:01:27;9.40;99.90
27890;DHT22;15238;49.082;9.102;2022-10-13T02:08:09;9.40;99.90
27890;DHT22;15238;49.082;9.102;2022-10-13T02:10:19;9.40;99.90
27890;DHT22;15238;49.082;9.102;2022-10-13T02:14:32;9.40;99.90
27890;DHT22;15238;49.082;9.102;2022-10-13T02:16:40;9.40;99.90
27890;DHT22;15238;49.082;9.102;2022-10-13T02:18:41;9.40;99.90
27890;DHT22;15238;49.082;9.102;2022-10-13T02:20:43;9.50;99.90
27890;DHT22;15238;49.082;9.102;2022-10-13T02:22:47;9.50;99.90
27890;DHT22;15238;49.082;9.102;2022-10-13T02:24:48;9.60;99.90
27890;DHT22;15238;49.082;9.102;2022-10-13T02:26:49;9.70;99.90
27890;DHT22;15238;49.082;9.102;2022-10-13T02:28:50;9.70;99.90
27890;DHT22;15238;49.082;9.102;2022-10-13T02:30:51;9.80;99.90
27890;DHT22;15238;49.082;9.102;2022-10-13T02:32:52;9.80;99.90
27890;DHT22;15238;49.082;9.102;2022-10-13T02:34:52;9.90;99.90
27890;DHT22;15238;49.082;9.102;2022-10-13T02:36:53;9.90;99.90
27890;DHT22;15238;49.082;9.102;2022-10-13T02:38:54;9.90;99.90
27890;DHT22;15238;49.082;9.102;2022-10-13T02:40:54;10.00;99.90
27890;DHT22;15238;49.082;9.102;2022-10-13T02:42:55;9.90;99.90
27890;DHT22;15238;49.082;9.102;2022-10-13T02:44:55;9.90;99.90
27890;DHT22;15238;49.082;9.102;2022-10-13T02:46:56;10.00;99.90
27890;DHT22;15238;49.082;9.102;2022-10-13T02:48:56;10.00;99.90
27890;DHT22;15238;49.082;9.102;2022-10-13T02:50:57;9.90;99.90
27890;DHT22;15238;49.082;9.102;2022-10-13T02:52:58;9.90;99.90
27890;DHT22;15238;49.082;9.102;2022-10-13T02:54:58;9.90;99.90
27890;DHT22;15238;49.082;9.102;2022-10-13T02:56:59;9.90;99.90
27890;DHT22;15238;49.082;9.102;2022-10-13T02:58:59;9.90;99.90
27890;DHT22;15238;49.082;9.102;2022-10-13T03:01:11;9.90;99.90
27890;DHT22;15238;49.082;9.102;2022-10-13T03:03:12;9.90;99.90
27890;DHT22;15238;49.082;9.102;2022-10-13T03:05:12;10.00;99.90
27890;DHT22;15238;49.082;9.102;2022-10-13T03:07:13;10.00;99.90
27890;DHT22;15238;49.082;9.102;2022-10-13T03:09:13;10.00;99.90
27890;DHT22;15238;49.082;9.102;2022-10-13T03:11:14;10.00;99.90
27890;DHT22;15238;49.082;9.102;2022-10-13T03:13:15;10.00;99.90
27890;DHT22;15238;49.082;9.102;2022-10-13T03:15:15;10.00;99.90
27890;DHT22;15238;49.082;9.102;2022-10-13T03:17:16;10.00;99.90
27890;DHT22;15238;49.082;9.102;2022-10-13T03:19:17;10.00;99.90
27890;DHT22;15238;49.082;9.102;2022-10-13T03:21:17;10.00;99.90
27890;DHT22;15238;49.082;9.102;2022-10-13T03:23:18;10.00;99.90
27890;DHT22;15238;49.082;9.102;2022-10-13T03:25:18;10.10;99.90
27890;DHT22;15238;49.082;9.102;2022-10-13T03:27:19;10.10;99.90
27890;DHT22;15238;49.082;9.102;2022-10-13T03:29:20;10.10;99.90
27890;DHT22;15238;49.082;9.102;2022-10-13T03:31:22;10.10;99.90
27890;DHT22;15238;49.082;9.102;2022-10-13T03:33:22;10.00;99.90
27890;DHT22;15238;49.082;9.102;2022-10-13T03:35:23;10.00;99.90
27890;DHT22;15238;49.082;9.102;2022-10-13T03:37:23;10.00;99.90
27890;DHT22;15238;49.082;9.102;2022-10-13T03:39:24;10.00;99.90
27890;DHT22;15238;49.082;9.102;2022-10-13T03:41:25;10.00;99.90
27890;DHT22;15238;49.082;9.102;2022-10-13T03:43:25;10.00;99.90
27890;DHT22;15238;49.082;9.102;2022-10-13T03:45:26;10.00;99.90
27890;DHT22;15238;49.082;9.102;2022-10-13T03:47:26;10.00;99.90
27890;DHT22;15238;49.082;9.102;2022-10-13T03:49:27;10.00;99.90
27890;DHT22;15238;49.082;9.102;2022-10-13T03:51:28;10.10;99.90
27890;DHT22;15238;49.082;9.102;2022-10-13T03:53:28;10.10;99.90
27890;DHT22;15238;49.082;9.102;2022-10-13T03:55:29;10.20;99.90
27890;DHT22;15238;49.082;9.102;2022-10-13T03:57:29;10.20;99.90
27890;DHT22;15238;49.082;9.102;2022-10-13T03:59:30;10.20;99.90
27890;DHT22;15238;49.082;9.102;2022-10-13T04:01:31;10.20;99.90
27890;DHT22;15238;49.082;9.102;2022-10-13T04:03:33;10.20;99.90
27890;DHT22;15238;49.082;9.102;2022-10-13T04:05:33;10.30;99.90
27890;DHT22;15238;49.082;9.102;2022-10-13T04:07:34;10.30;99.90
27890;DHT22;15238;49.082;9.102;2022-10-13T04:09:34;10.30;99.90
27890;DHT22;15238;49.082;9.102;2022-10-13T04:11:35;10.40;99.90
27890;DHT22;15238;49.082;9.102;2022-10-13T04:13:36;10.40;99.90
27890;DHT22;15238;49.082;9.102;2022-10-13T04:15:39;10.40;99.90
27890;DHT22;15238;49.082;9.102;2022-10-13T04:17:39;10.40;99.90
27890;DHT22;15238;49.082;9.102;2022-10-13T04:19:40;10.40;99.90
27890;DHT22;15238;49.082;9.102;2022-10-13T04:21:41;10.30;99.90
27890;DHT22;15238;49.082;9.102;2022-10-13T04:23:42;10.30;99.90
27890;DHT22;15238;49.082;9.102;2022-10-13T04:25:42;10.40;99.90
27890;DHT22;15238;49.082;9.102;2022-10-13T04:27:43;10.30;99.90
27890;DHT22;15238;49.082;9.102;2022-10-13T04:29:44;10.30;99.90
27890;DHT22;15238;49.082;9.102;2022-10-13T04:31:44;10.30;99.90
27890;DHT22;15238;49.082;9.102;2022-10-13T04:33:45;10.30;99.90
27890;DHT22;15238;49.082;9.102;2022-10-13T04:35:45;10.30;99.90
27890;DHT22;15238;49.082;9.102;2022-10-13T04:37:46;10.30;99.90
27890;DHT22;15238;49.082;9.102;2022-10-13T04:39:46;10.40;99.90
27890;DHT22;15238;49.082;9.102;2022-10-13T04:41:47;10.30;99.90
27890;DHT22;15238;49.082;9.102;2022-10-13T04:43:52;10.40;99.90
27890;DHT22;15238;49.082;9.102;2022-10-13T04:45:52;10.40;99.90
27890;DHT22;15238;49.082;9.102;2022-10-13T04:47:53;10.40;99.90
27890;DHT22;15238;49.082;9.102;2022-10-13T04:49:53;10.40;99.90
27890;DHT22;15238;49.082;9.102;2022-10-13T04:51:54;10.50;99.90
27890;DHT22;15238;49.082;9.102;2022-10-13T04:53:56;10.50;99.90
27890;DHT22;15238;49.082;9.102;2022-10-13T04:56:06;10.60;99.90
27890;DHT22;15238;49.082;9.102;2022-10-13T04:58:07;10.70;99.90
27890;DHT22;15238;49.082;9.102;2022-10-13T05:00:09;10.70;99.90
27890;DHT22;15238;49.082;9.102;2022-10-13T05:02:09;10.70;99.90
27890;DHT22;15238;49.082;9.102;2022-10-13T05:04:10;10.80;99.90
27890;DHT22;15238;49.082;9.102;2022-10-13T05:06:19;10.90;99.90
27890;DHT22;15238;49.082;9.102;2022-10-13T05:08:20;10.90;99.90
27890;DHT22;15238;49.082;9.102;2022-10-13T05:10:20;10.90;99.90
27890;DHT22;15238;49.082;9.102;2022-10-13T05:12:21;10.90;99.90
27890;DHT22;15238;49.082;9.102;2022-10-13T05:14:22;10.90;99.90
27890;DHT22;15238;49.082;9.102;2022-10-13T05:16:23;11.00;99.90
27890;DHT22;15238;49.082;9.102;2022-10-13T05:18:24;11.00;99.90
27890;DHT22;15238;49.082;9.102;2022-10-13T05:20:25;11.00;99.90
27890;DHT22;15238;49.082;9.102;2022-10-13T05:22:27;11.00;99.90
27890;DHT22;15238;49.082;9.102;2022-10-13T05:24:32;11.00;99.90
27890;DHT22;15238;49.082;9.102;2022-10-13T05:26:35;11.10;99.90
27890;DHT22;15238;49.082;9.102;2022-10-13T05:28:36;11.10;99.90
27890;DHT22;15238;49.082;9.102;2022-10-13T05:30:37;11.10;99.90
27890;DHT22;15238;49.082;9.102;2022-10-13T05:32:38;11.10;99.90
27890;DHT22;15238;49.082;9.102;2022-10-13T05:34:38;11.10;99.90
27890;DHT22;15238;49.082;9.102;2022-10-13T05:36:39;11.10;99.90
27890;DHT22;15238;49.082;9.102;2022-10-13T05:38:40;11.10;99.90
27890;DHT22;15238;49.082;9.102;2022-10-13T05:40:40;11.10;99.90
27890;DHT22;15238;49.082;9.102;2022-10-13T05:42:41;11.20;99.90
27890;DHT22;15238;49.082;9.102;2022-10-13T05:44:41;11.20;99.90
27890;DHT22;15238;49.082;9.102;2022-10-13T05:46:42;11.20;99.90
27890;DHT22;15238;49.082;9.102;2022-10-13T05:48:43;11.10;99.90
27890;DHT22;15238;49.082;9.102;2022-10-13T05:50:44;11.20;99.90
27890;DHT22;15238;49.082;9.102;2022-10-13T05:52:45;11.20;99.90
27890;DHT22;15238;49.082;9.102;2022-10-13T05:54:47;11.10;99.90
27890;DHT22;15238;49.082;9.102;2022-10-13T05:59:08;11.10;99.90
27890;DHT22;15238;49.082;9.102;2022-10-13T06:01:14;11.00;99.90
27890;DHT22;15238;49.082;9.102;2022-10-13T06:03:18;11.00;99.90
27890;DHT22;15238;49.082;9.102;2022-10-13T06:05:22;11.00;99.90
27890;DHT22;15238;49.082;9.102;2022-10-13T06:07:24;11.10;99.90
27890;DHT22;15238;49.082;9.102;2022-10-13T06:09:27;11.10;99.90
27890;DHT22;15238;49.082;9.102;2022-10-13T06:11:31;11.10;99.90
27890;DHT22;15238;49.082;9.102;2022-10-13T06:13:31;11.10;99.90
27890;DHT22;15238;49.082;9.102;2022-10-13T06:15:33;11.10;99.90
27890;DHT22;15238;49.082;9.102;2022-10-13T06:17:37;11.10;99.90
27890;DHT22;15238;49.082;9.102;2022-10-13T06:19:38;11.10;99.90
27890;DHT22;15238;49.082;9.102;2022-10-13T06:21:38;11.10;99.90
27890;DHT22;15238;49.082;9.102;2022-10-13T06:23:39;11.10;99.90
27890;DHT22;15238;49.082;9.102;2022-10-13T06:25:50;11.20;99.90
27890;DHT22;15238;49.082;9.102;2022-10-13T06:27:51;11.20;99.90
27890;DHT22;15238;49.082;9.102;2022-10-13T06:29:51;11.30;99.90
27890;DHT22;15238;49.082;9.102;2022-10-13T06:31:52;11.30;99.90
27890;DHT22;15238;49.082;9.102;2022-10-13T06:33:53;11.30;99.90
27890;DHT22;15238;49.082;9.102;2022-10-13T06:35:53;11.30;99.90
27890;DHT22;15238;49.082;9.102;2022-10-13T06:37:56;11.40;99.90
27890;DHT22;15238;49.082;9.102;2022-10-13T06:39:56;11.50;99.90
27890;DHT22;15238;49.082;9.102;2022-10-13T06:41:57;11.50;99.90
27890;DHT22;15238;49.082;9.102;2022-10-13T06:43:57;11.50;99.90
27890;DHT22;15238;49.082;9.102;2022-10-13T06:45:59;11.60;99.90
27890;DHT22;15238;49.082;9.102;2022-10-13T06:47:59;11.60;99.90
27890;DHT22;15238;49.082;9.102;2022-10-13T06:50:00;11.60;99.90
27890;DHT22;15238;49.082;9.102;2022-10-13T06:52:01;11.70;99.90
27890;DHT22;15238;49.082;9.102;2022-10-13T06:54:01;11.70;99.90
27890;DHT22;15238;49.082;9.102;2022-10-13T06:56:04;11.70;99.90
27890;DHT22;15238;49.082;9.102;2022-10-13T06:58:05;11.80;99.90
27890;DHT22;15238;49.082;9.102;2022-10-13T07:00:06;11.80;99.90
27890;DHT22;15238;49.082;9.102;2022-10-13T07:02:08;11.90;99.90
27890;DHT22;15238;49.082;9.102;2022-10-13T07:04:08;11.90;99.90
27890;DHT22;15238;49.082;9.102;2022-10-13T07:06:09;12.00;99.90
27890;DHT22;15238;49.082;9.102;2022-10-13T07:08:10;12.00;99.90
27890;DHT22;15238;49.082;9.102;2022-10-13T07:10:10;12.10;99.90
27890;DHT22;15238;49.082;9.102;2022-10-13T07:12:12;12.20;99.90
27890;DHT22;15238;49.082;9.102;2022-10-13T07:14:13;12.20;99.90
27890;DHT22;15238;49.082;9.102;2022-10-13T07:16:14;12.30;99.90
27890;DHT22;15238;49.082;9.102;2022-10-13T07:18:15;12.30;99.90
27890;DHT22;15238;49.082;9.102;2022-10-13T07:20:15;12.40;99.90
27890;DHT22;15238;49.082;9.102;2022-10-13T07:22:16;12.50;99.90
27890;DHT22;15238;49.082;9.102;2022-10-13T07:24:16;12.60;99.90
27890;DHT22;15238;49.082;9.102;2022-10-13T07:26:17;12.60;99.90
27890;DHT22;15238;49.082;9.102;2022-10-13T07:28:18;12.70;99.90
27890;DHT22;15238;49.082;9.102;2022-10-13T07:30:18;12.70;99.90
27890;DHT22;15238;49.082;9.102;2022-10-13T07:32:19;12.80;99.90
27890;DHT22;15238;49.082;9.102;2022-10-13T07:34:20;12.90;99.90
27890;DHT22;15238;49.082;9.102;2022-10-13T07:36:20;12.90;99.90
27890;DHT22;15238;49.082;9.102;2022-10-13T07:38:21;12.90;99.90
27890;DHT22;15238;49.082;9.102;2022-10-13T07:40:21;12.90;99.90
27890;DHT22;15238;49.082;9.102;2022-10-13T07:42:22;12.90;99.90
27890;DHT22;15238;49.082;9.102;2022-10-13T07:44:22;13.00;99.90
27890;DHT22;15238;49.082;9.102;2022-10-13T07:46:24;13.00;99.90
27890;DHT22;15238;49.082;9.102;2022-10-13T07:48:25;13.00;99.90
27890;DHT22;15238;49.082;9.102;2022-10-13T07:50:26;13.00;99.90
27890;DHT22;15238;49.082;9.102;2022-10-13T07:52:26;13.10;99.90
27890;DHT22;15238;49.082;9.102;2022-10-13T07:54:27;13.20;99.90
27890;DHT22;15238;49.082;9.102;2022-10-13T07:56:27;13.20;99.90
27890;DHT22;15238;49.082;9.102;2022-10-13T07:58:28;13.30;99.90
27890;DHT22;15238;49.082;9.102;2022-10-13T08:00:29;13.30;99.90
27890;DHT22;15238;49.082;9.102;2022-10-13T08:02:31;13.40;99.90
27890;DHT22;15238;49.082;9.102;2022-10-13T08:04:34;13.50;99.90
27890;DHT22;15238;49.082;9.102;2022-10-13T08:06:35;13.50;99.90
27890;DHT22;15238;49.082;9.102;2022-10-13T08:08:36;13.60;99.90
27890;DHT22;15238;49.082;9.102;2022-10-13T08:10:36;13.70;99.90
27890;DHT22;15238;49.082;9.102;2022-10-13T08:12:37;13.80;99.90
27890;DHT22;15238;49.082;9.102;2022-10-13T08:14:38;13.80;99.90
27890;DHT22;15238;49.082;9.102;2022-10-13T08:16:38;13.90;99.90
27890;DHT22;15238;49.082;9.102;2022-10-13T08:18:41;14.00;99.90
27890;DHT22;15238;49.082;9.102;2022-10-13T08:20:43;14.10;99.90
27890;DHT22;15238;49.082;9.102;2022-10-13T08:22:45;14.20;99.90
27890;DHT22;15238;49.082;9.102;2022-10-13T08:24:45;14.40;99.90
27890;DHT22;15238;49.082;9.102;2022-10-13T08:26:46;14.60;99.90
27890;DHT22;15238;49.082;9.102;2022-10-13T08:28:46;14.80;99.90
27890;DHT22;15238;49.082;9.102;2022-10-13T08:30:47;14.90;99.90
27890;DHT22;15238;49.082;9.102;2022-10-13T08:32:49;15.00;99.90
27890;DHT22;15238;49.082;9.102;2022-10-13T08:34:50;15.20;99.90
27890;DHT22;15238;49.082;9.102;2022-10-13T08:36:51;15.30;99.90
27890;DHT22;15238;49.082;9.102;2022-10-13T08:38:53;15.30;99.90
27890;DHT22;15238;49.082;9.102;2022-10-13T08:40:54;15.30;99.90
27890;DHT22;15238;49.082;9.102;2022-10-13T08:42:54;15.40;99.90
27890;DHT22;15238;49.082;9.102;2022-10-13T08:44:58;15.50;99.90
27890;DHT22;15238;49.082;9.102;2022-10-13T08:47:05;15.60;99.90
27890;DHT22;15238;49.082;9.102;2022-10-13T08:49:08;15.70;99.90
27890;DHT22;15238;49.082;9.102;2022-10-13T08:51:12;15.70;99.90
27890;DHT22;15238;49.082;9.102;2022-10-13T08:55:39;15.90;99.90
27890;DHT22;15238;49.082;9.102;2022-10-13T08:57:40;16.10;99.90
27890;DHT22;15238;49.082;9.102;2022-10-13T08:59:41;16.20;99.90
27890;DHT22;15238;49.082;9.102;2022-10-13T09:01:41;16.10;99.90
27890;DHT22;15238;49.082;9.102;2022-10-13T09:03:59;16.00;99.90
27890;DHT22;15238;49.082;9.102;2022-10-13T09:06:25;15.80;99.90
27890;DHT22;15238;49.082;9.102;2022-10-13T09:08:40;15.80;99.90
27890;DHT22;15238;49.082;9.102;2022-10-13T09:10:49;16.00;99.90
27890;DHT22;15238;49.082;9.102;2022-10-13T09:12:50;16.10;99.90
27890;DHT22;15238;49.082;9.102;2022-10-13T09:21:24;16.40;99.90
27890;DHT22;15238;49.082;9.102;2022-10-13T09:23:25;16.50;99.90
27890;DHT22;15238;49.082;9.102;2022-10-13T09:25:26;16.50;99.90
27890;DHT22;15238;49.082;9.102;2022-10-13T09:27:27;16.60;99.90
27890;DHT22;15238;49.082;9.102;2022-10-13T09:29:27;16.70;99.90
27890;DHT22;15238;49.082;9.102;2022-10-13T09:31:28;16.70;99.90
27890;DHT22;15238;49.082;9.102;2022-10-13T09:33:35;16.70;99.90
27890;DHT22;15238;49.082;9.102;2022-10-13T09:35:42;16.80;99.90
27890;DHT22;15238;49.082;9.102;2022-10-13T09:37:43;16.70;99.90
27890;DHT22;15238;49.082;9.102;2022-10-13T09:39:44;16.70;99.90
27890;DHT22;15238;49.082;9.102;2022-10-13T09:41:44;16.70;99.90
27890;DHT22;15238;49.082;9.102;2022-10-13T09:45:45;16.70;99.90
27890;DHT22;15238;49.082;9.102;2022-10-13T09:47:53;16.60;99.90
27890;DHT22;15238;49.082;9.102;2022-10-13T09:50:00;16.60;99.90
27890;DHT22;15238;49.082;9.102;2022-10-13T09:52:05;16.50;99.90
27890;DHT22;15238;49.082;9.102;2022-10-13T09:56:45;16.30;99.90
27890;DHT22;15238;49.082;9.102;2022-10-13T09:59:20;16.40;99.90
27890;DHT22;15238;49.082;9.102;2022-10-13T10:01:27;16.40;99.90
27890;DHT22;15238;49.082;9.102;2022-10-13T10:03:34;16.50;99.90
27890;DHT22;15238;49.082;9.102;2022-10-13T10:07:44;16.40;99.90
27890;DHT22;15238;49.082;9.102;2022-10-13T10:09:48;16.30;99.90
27890;DHT22;15238;49.082;9.102;2022-10-13T10:11:52;16.10;99.90
27890;DHT22;15238;49.082;9.102;2022-10-13T10:13:55;16.20;99.90
27890;DHT22;15238;49.082;9.102;2022-10-13T10:16:19;16.20;99.90
27890;DHT22;15238;49.082;9.102;2022-10-13T10:18:35;16.20;99.90
27890;DHT22;15238;49.082;9.102;2022-10-13T10:25:14;16.30;99.90
27890;DHT22;15238;49.082;9.102;2022-10-13T10:27:27;16.30;99.90
27890;DHT22;15238;49.082;9.102;2022-10-13T10:29:49;16.30;99.90
27890;DHT22;15238;49.082;9.102;2022-10-13T10:36:19;16.20;99.90
27890;DHT22;15238;49.082;9.102;2022-10-13T10:38:46;16.30;99.90
27890;DHT22;15238;49.082;9.102;2022-10-13T10:43:24;16.20;99.90
27890;DHT22;15238;49.082;9.102;2022-10-13T10:45:38;16.20;99.90
27890;DHT22;15238;49.082;9.102;2022-10-13T10:47:42;16.20;99.90
27890;DHT22;15238;49.082;9.102;2022-10-13T10:49:43;16.30;99.90
27890;DHT22;15238;49.082;9.102;2022-10-13T10:51:46;16.40;99.90
27890;DHT22;15238;49.082;9.102;2022-10-13T10:56:43;16.60;99.90
27890;DHT22;15238;49.082;9.102;2022-10-13T10:58:57;16.70;99.90
27890;DHT22;15238;49.082;9.102;2022-10-13T11:01:04;16.80;99.90
27890;DHT22;15238;49.082;9.102;2022-10-13T11:03:18;16.80;99.90
27890;DHT22;15238;49.082;9.102;2022-10-13T11:05:21;16.80;99.90
27890;DHT22;15238;49.082;9.102;2022-10-13T11:11:41;16.80;99.90
27890;DHT22;15238;49.082;9.102;2022-10-13T11:15:53;17.00;99.90
27890;DHT22;15238;49.082;9.102;2022-10-13T11:17:54;17.10;99.90
27890;DHT22;15238;49.082;9.102;2022-10-13T11:19:56;17.20;99.90
27890;DHT22;15238;49.082;9.102;2022-10-13T11:23:57;17.50;99.90
27890;DHT22;15238;49.082;9.102;2022-10-13T11:26:18;17.50;99.90
27890;DHT22;15238;49.082;9.102;2022-10-13T11:30:41;17.70;99.90
27890;DHT22;15238;49.082;9.102;2022-10-13T11:32:42;17.70;99.90
27890;DHT22;15238;49.082;9.102;2022-10-13T11:37:15;17.80;99.90
27890;DHT22;15238;49.082;9.102;2022-10-13T11:41:38;17.80;99.90
27890;DHT22;15238;49.082;9.102;2022-10-13T11:53:26;18.10;99.90
27890;DHT22;15238;49.082;9.102;2022-10-13T11:55:56;18.20;99.90
27890;DHT22;15238;49.082;9.102;2022-10-13T11:58:17;18.20;99.90
27890;DHT22;15238;49.082;9.102;2022-10-13T12:00:18;18.10;99.90
27890;DHT22;15238;49.082;9.102;2022-10-13T12:02:19;18.10;99.90
27890;DHT22;15238;49.082;9.102;2022-10-13T12:04:22;18.10;99.90
27890;DHT22;15238;49.082;9.102;2022-10-13T12:06:32;18.10;99.90
27890;DHT22;15238;49.082;9.102;2022-10-13T12:08:34;18.20;99.90
27890;DHT22;15238;49.082;9.102;2022-10-13T12:10:36;18.20;99.90
27890;DHT22;15238;49.082;9.102;2022-10-13T12:12:47;18.40;99.90
27890;DHT22;15238;49.082;9.102;2022-10-13T12:14:51;18.40;99.90
27890;DHT22;15238;49.082;9.102;2022-10-13T12:16:57;18.50;99.90
27890;DHT22;15238;49.082;9.102;2022-10-13T12:19:14;18.50;99.90
27890;DHT22;15238;49.082;9.102;2022-10-13T12:21:20;18.50;99.90
27890;DHT22;15238;49.082;9.102;2022-10-13T12:23:22;18.60;99.90
27890;DHT22;15238;49.082;9.102;2022-10-13T12:25:25;18.50;99.90
27890;DHT22;15238;49.082;9.102;2022-10-13T12:27:29;18.60;99.90
27890;DHT22;15238;49.082;9.102;2022-10-13T12:29:33;18.60;99.90
27890;DHT22;15238;49.082;9.102;2022-10-13T12:31:39;18.70;99.90
27890;DHT22;15238;49.082;9.102;2022-10-13T12:33:40;18.70;99.90
27890;DHT22;15238;49.082;9.102;2022-10-13T12:35:41;18.70;99.90
27890;DHT22;15238;49.082;9.102;2022-10-13T12:37:42;18.50;99.90
27890;DHT22;15238;49.082;9.102;2022-10-13T12:39:43;18.60;99.90
27890;DHT22;15238;49.082;9.102;2022-10-13T12:41:45;18.70;99.90
27890;DHT22;15238;49.082;9.102;2022-10-13T12:43:47;18.80;99.90
27890;DHT22;15238;49.082;9.102;2022-10-13T12:45:49;18.70;99.90
27890;DHT22;15238;49.082;9.102;2022-10-13T12:47:52;18.70;99.90
27890;DHT22;15238;49.082;9.102;2022-10-13T12:52:22;18.70;99.90
27890;DHT22;15238;49.082;9.102;2022-10-13T12:54:30;18.70;99.90
27890;DHT22;15238;49.082;9.102;2022-10-13T12:56:32;18.60;99.90
27890;DHT22;15238;49.082;9.102;2022-10-13T12:58:34;18.60;99.90
27890;DHT22;15238;49.082;9.102;2022-10-13T13:00:35;18.50;99.90
27890;DHT22;15238;49.082;9.102;2022-10-13T13:02:36;18.50;99.90
27890;DHT22;15238;49.082;9.102;2022-10-13T13:06:37;18.40;99.90
27890;DHT22;15238;49.082;9.102;2022-10-13T13:08:38;18.50;99.90
27890;DHT22;15238;49.082;9.102;2022-10-13T13:13:12;18.50;99.90
27890;DHT22;15238;49.082;9.102;2022-10-13T13:15:37;18.50;99.90
27890;DHT22;15238;49.082;9.102;2022-10-13T13:17:37;18.50;99.90
27890;DHT22;15238;49.082;9.102;2022-10-13T13:19:40;18.60;99.90
27890;DHT22;15238;49.082;9.102;2022-10-13T13:21:41;18.60;99.90
27890;DHT22;15238;49.082;9.102;2022-10-13T13:23:43;18.60;99.90
27890;DHT22;15238;49.082;9.102;2022-10-13T13:25:45;18.50;99.90
27890;DHT22;15238;49.082;9.102;2022-10-13T13:27:46;18.60;99.90
27890;DHT22;15238;49.082;9.102;2022-10-13T13:29:47;18.40;99.90
27890;DHT22;15238;49.082;9.102;2022-10-13T13:31:48;18.30;99.90
27890;DHT22;15238;49.082;9.102;2022-10-13T13:33:49;18.20;99.90
27890;DHT22;15238;49.082;9.102;2022-10-13T13:35:51;18.20;99.90
27890;DHT22;15238;49.082;9.102;2022-10-13T13:37:52;18.10;99.90
27890;DHT22;15238;49.082;9.102;2022-10-13T13:39:52;18.20;99.90
27890;DHT22;15238;49.082;9.102;2022-10-13T13:41:54;18.20;99.90
27890;DHT22;15238;49.082;9.102;2022-10-13T13:43:54;18.20;99.90
27890;DHT22;15238;49.082;9.102;2022-10-13T13:45:55;18.30;99.90
27890;DHT22;15238;49.082;9.102;2022-10-13T13:47:55;18.30;99.90
27890;DHT22;15238;49.082;9.102;2022-10-13T13:49:56;18.30;99.90
27890;DHT22;15238;49.082;9.102;2022-10-13T13:51:57;18.40;99.90
27890;DHT22;15238;49.082;9.102;2022-10-13T13:53:57;18.40;99.90
27890;DHT22;15238;49.082;9.102;2022-10-13T13:55:58;18.50;99.90
27890;DHT22;15238;49.082;9.102;2022-10-13T13:57:58;18.50;99.90
27890;DHT22;15238;49.082;9.102;2022-10-13T13:59:59;18.50;99.90
27890;DHT22;15238;49.082;9.102;2022-10-13T14:01:59;18.50;99.90
27890;DHT22;15238;49.082;9.102;2022-10-13T14:04:00;18.50;99.90
27890;DHT22;15238;49.082;9.102;2022-10-13T14:06:02;18.40;99.90
27890;DHT22;15238;49.082;9.102;2022-10-13T14:08:03;18.40;99.90
27890;DHT22;15238;49.082;9.102;2022-10-13T14:10:04;18.30;99.90
27890;DHT22;15238;49.082;9.102;2022-10-13T14:12:05;18.40;99.90
27890;DHT22;15238;49.082;9.102;2022-10-13T14:14:05;18.40;99.90
27890;DHT22;15238;49.082;9.102;2022-10-13T14:16:06;18.50;99.90
27890;DHT22;15238;49.082;9.102;2022-10-13T14:18:07;18.50;99.90
27890;DHT22;15238;49.082;9.102;2022-10-13T14:20:08;18.40;99.90
27890;DHT22;15238;49.082;9.102;2022-10-13T14:22:09;18.30;99.90
27890;DHT22;15238;49.082;9.102;2022-10-13T14:24:09;18.30;99.90
27890;DHT22;15238;49.082;9.102;2022-10-13T14:26:10;18.20;99.90
27890;DHT22;15238;49.082;9.102;2022-10-13T14:28:11;18.10;99.90